sensor_id;sensor_type;location;lat;lon;timestamp;temperature;humidity
18444;DHT22;9350;53.176;8.194;2024-01-30T00:00:33;5.90;99.90
18444;DHT22;9350;53.176;8.194;2024-01-30T00:02:59;5.80;99.90
18444;DHT22;9350;53.176;8.194;2024-01-30T00:05:27;5.80;99.90
18444;DHT22;9350;53.176;8.194;2024-01-30T00:07:54;5.90;99.90
18444;DHT22;9350;53.176;8.194;2024-01-30T00:10:21;5.80;99.90
18444;DHT22;9350;53.176;8.194;2024-01-30T00:12:48;5.80;99.90
18444;DHT22;9350;53.176;8.194;2024-01-30T00:15:15;5.80;99.90
18444;DHT22;9350;53.176;8.194;2024-01-30T00:17:42;5.80;99.90
18444;DHT22;9350;53.176;8.194;2024-01-30T00:20:09;5.70;99.90
18444;DHT22;9350;53.176;8.194;2024-01-30T00:22:37;5.80;99.90
18444;DHT22;9350;53.176;8.194;2024-01-30T00:25:04;5.90;99.90
18444;DHT22;9350;53.176;8.194;2024-01-30T00:27:31;5.80;99.90
18444;DHT22;9350;53.176;8.194;2024-01-30T00:29:58;5.80;99.90
18444;DHT22;9350;53.176;8.194;2024-01-30T00:32:25;5.80;99.90
18444;DHT22;9350;53.176;8.194;2024-01-30T00:34:51;5.80;99.90
18444;DHT22;9350;53.176;8.194;2024-01-30T00:37:18;5.80;99.90
18444;DHT22;9350;53.176;8.194;2024-01-30T00:39:46;5.80;99.90
18444;DHT22;9350;53.176;8.194;2024-01-30T00:42:13;5.80;99.90
18444;DHT22;9350;53.176;8.194;2024-01-30T00:44:40;5.80;99.90
18444;DHT22;9350;53.176;8.194;2024-01-30T00:47:07;5.80;99.90
18444;DHT22;9350;53.176;8.194;2024-01-30T00:49:34;5.90;99.90
18444;DHT22;9350;53.176;8.194;2024-01-30T00:52:01;5.80;99.90
18444;DHT22;9350;53.176;8.194;2024-01-30T00:54:27;5.90;99.90
18444;DHT22;9350;53.176;8.194;2024-01-30T00:56:55;5.90;99.90
18444;DHT22;9350;53.176;8.194;2024-01-30T00:59:22;5.90;99.90
18444;DHT22;9350;53.176;8.194;2024-01-30T01:01:49;5.90;99.90
18444;DHT22;9350;53.176;8.194;2024-01-30T01:04:16;5.80;99.90
18444;DHT22;9350;53.176;8.194;2024-01-30T01:06:43;5.90;99.90
18444;DHT22;9350;53.176;8.194;2024-01-30T01:09:10;5.90;99.90
18444;DHT22;9350;53.176;8.194;2024-01-30T01:11:37;5.90;99.90
18444;DHT22;9350;53.176;8.194;2024-01-30T01:14:05;5.90;99.90
18444;DHT22;9350;53.176;8.194;2024-01-30T01:16:33;5.80;99.90
18444;DHT22;9350;53.176;8.194;2024-01-30T01:19:00;5.80;99.90
18444;DHT22;9350;53.176;8.194;2024-01-30T01:21:27;5.80;99.90
18444;DHT22;9350;53.176;8.194;2024-01-30T01:23:54;5.80;99.90
18444;DHT22;9350;53.176;8.194;2024-01-30T01:26:21;5.80;99.90
18444;DHT22;9350;53.176;8.194;2024-01-30T01:28:48;5.70;99.90
18444;DHT22;9350;53.176;8.194;2024-01-30T01:31:16;5.70;99.90
18444;DHT22;9350;53.176;8.194;2024-01-30T01:33:43;5.80;99.90
18444;DHT22;9350;53.176;8.194;2024-01-30T01:36:10;5.80;99.90
18444;DHT22;9350;53.176;8.194;2024-01-30T01:38:36;5.80;99.90
18444;DHT22;9350;53.176;8.194;2024-01-30T01:41:03;5.80;99.90
18444;DHT22;9350;53.176;8.194;2024-01-30T01:43:30;5.80;99.90
18444;DHT22;9350;53.176;8.194;2024-01-30T01:45:57;5.80;99.90
18444;DHT22;9350;53.176;8.194;2024-01-30T01:48:26;5.70;99.90
18444;DHT22;9350;53.176;8.194;2024-01-30T01:50:53;5.70;99.90
18444;DHT22;9350;53.176;8.194;2024-01-30T01:53:20;5.70;99.90
18444;DHT22;9350;53.176;8.194;2024-01-30T01:55:47;5.80;99.90
18444;DHT22;9350;53.176;8.194;2024-01-30T01:58:14;5.70;99.90
18444;DHT22;9350;53.176;8.194;2024-01-30T02:00:41;5.70;99.90
18444;DHT22;9350;53.176;8.194;2024-01-30T02:03:10;5.60;99.90
18444;DHT22;9350;53.176;8.194;2024-01-30T02:05:39;5.80;99.90
18444;DHT22;9350;53.176;8.194;2024-01-30T02:08:06;5.70;99.90
18444;DHT22;9350;53.176;8.194;2024-01-30T02:10:33;5.70;99.90
18444;DHT22;9350;53.176;8.194;2024-01-30T02:13:00;5.80;99.90
18444;DHT22;9350;53.176;8.194;2024-01-30T02:15:27;5.80;99.90
18444;DHT22;9350;53.176;8.194;2024-01-30T02:17:54;5.70;99.90
18444;DHT22;9350;53.176;8.194;2024-01-30T02:20:22;5.70;99.90
18444;DHT22;9350;53.176;8.194;2024-01-30T02:22:52;5.70;99.90
18444;DHT22;9350;53.176;8.194;2024-01-30T02:25:19;5.60;99.90
18444;DHT22;9350;53.176;8.194;2024-01-30T02:27:45;5.70;99.90
18444;DHT22;9350;53.176;8.194;2024-01-30T02:30:13;5.60;99.90
18444;DHT22;9350;53.176;8.194;2024-01-30T02:32:40;5.60;99.90
18444;DHT22;9350;53.176;8.194;2024-01-30T02:35:06;5.60;99.90
18444;DHT22;9350;53.176;8.194;2024-01-30T02:37:33;5.70;99.90
18444;DHT22;9350;53.176;8.194;2024-01-30T02:40:01;5.60;99.90
18444;DHT22;9350;53.176;8.194;2024-01-30T02:42:28;5.60;99.90
18444;DHT22;9350;53.176;8.194;2024-01-30T02:44:55;5.60;99.90
18444;DHT22;9350;53.176;8.194;2024-01-30T02:47:21;5.60;99.90
18444;DHT22;9350;53.176;8.194;2024-01-30T02:49:48;5.50;99.90
18444;DHT22;9350;53.176;8.194;2024-01-30T02:52:15;5.50;99.90
18444;DHT22;9350;53.176;8.194;2024-01-30T02:54:42;5.50;99.90
18444;DHT22;9350;53.176;8.194;2024-01-30T02:57:10;5.60;99.90
18444;DHT22;9350;53.176;8.194;2024-01-30T02:59:37;5.50;99.90
18444;DHT22;9350;53.176;8.194;2024-01-30T03:02:04;5.60;99.90
18444;DHT22;9350;53.176;8.194;2024-01-30T03:04:30;5.60;99.90
18444;DHT22;9350;53.176;8.194;2024-01-30T03:06:57;5.60;99.90
18444;DHT22;9350;53.176;8.194;2024-01-30T03:09:24;5.60;99.90
18444;DHT22;9350;53.176;8.194;2024-01-30T03:11:51;5.70;99.90
18444;DHT22;9350;53.176;8.194;2024-01-30T03:14:19;5.70;99.90
18444;DHT22;9350;53.176;8.194;2024-01-30T03:16:46;5.70;99.90
18444;DHT22;9350;53.176;8.194;2024-01-30T03:19:12;5.70;99.90
18444;DHT22;9350;53.176;8.194;2024-01-30T03:21:39;5.70;99.90
18444;DHT22;9350;53.176;8.194;2024-01-30T03:24:06;5.70;99.90
18444;DHT22;9350;53.176;8.194;2024-01-30T03:26:33;5.80;99.90
18444;DHT22;9350;53.176;8.194;2024-01-30T03:28:59;5.80;99.90
18444;DHT22;9350;53.176;8.194;2024-01-30T03:31:28;5.80;99.90
18444;DHT22;9350;53.176;8.194;2024-01-30T03:33:55;5.80;99.90
18444;DHT22;9350;53.176;8.194;2024-01-30T03:36:22;5.80;99.90
18444;DHT22;9350;53.176;8.194;2024-01-30T03:38:48;5.80;99.90
18444;DHT22;9350;53.176;8.194;2024-01-30T03:41:15;5.80;99.90
18444;DHT22;9350;53.176;8.194;2024-01-30T03:43:42;5.80;99.90
18444;DHT22;9350;53.176;8.194;2024-01-30T03:46:09;5.90;99.90
18444;DHT22;9350;53.176;8.194;2024-01-30T03:48:39;5.80;99.90
18444;DHT22;9350;53.176;8.194;2024-01-30T03:51:06;5.80;99.90
18444;DHT22;9350;53.176;8.194;2024-01-30T03:53:32;5.80;99.90
18444;DHT22;9350;53.176;8.194;2024-01-30T03:55:59;5.80;99.90
18444;DHT22;9350;53.176;8.194;2024-01-30T03:58:26;5.80;99.90
18444;DHT22;9350;53.176;8.194;2024-01-30T04:00:53;5.90;99.90
18444;DHT22;9350;53.176;8.194;2024-01-30T04:03:20;5.80;99.90
18444;DHT22;9350;53.176;8.194;2024-01-30T04:05:48;5.90;99.90
18444;DHT22;9350;53.176;8.194;2024-01-30T04:08:14;5.90;99.90
18444;DHT22;9350;53.176;8.194;2024-01-30T04:10:41;5.90;99.90
18444;DHT22;9350;53.176;8.194;2024-01-30T04:13:08;5.90;99.90
18444;DHT22;9350;53.176;8.194;2024-01-30T04:15:35;5.90;99.90
18444;DHT22;9350;53.176;8.194;2024-01-30T04:18:02;5.80;99.90
18444;DHT22;9350;53.176;8.194;2024-01-30T04:20:29;5.80;99.90
18444;DHT22;9350;53.176;8.194;2024-01-30T04:22:58;5.80;99.90
18444;DHT22;9350;53.176;8.194;2024-01-30T04:25:24;5.80;99.90
18444;DHT22;9350;53.176;8.194;2024-01-30T04:27:51;5.80;99.90
18444;DHT22;9350;53.176;8.194;2024-01-30T04:30:18;5.80;99.90
18444;DHT22;9350;53.176;8.194;2024-01-30T04:32:45;5.70;99.90
18444;DHT22;9350;53.176;8.194;2024-01-30T04:35:11;5.70;99.90
18444;DHT22;9350;53.176;8.194;2024-01-30T04:37:38;5.70;99.90
18444;DHT22;9350;53.176;8.194;2024-01-30T04:40:07;5.70;99.90
18444;DHT22;9350;53.176;8.194;2024-01-30T04:42:35;5.70;99.90
18444;DHT22;9350;53.176;8.194;2024-01-30T04:45:01;5.60;99.90
18444;DHT22;9350;53.176;8.194;2024-01-30T04:47:28;5.60;99.90
18444;DHT22;9350;53.176;8.194;2024-01-30T04:49:55;5.60;99.90
18444;DHT22;9350;53.176;8.194;2024-01-30T04:52:22;5.60;99.90
18444;DHT22;9350;53.176;8.194;2024-01-30T04:54:49;5.60;99.90
18444;DHT22;9350;53.176;8.194;2024-01-30T04:57:17;5.70;99.90
18444;DHT22;9350;53.176;8.194;2024-01-30T04:59:44;5.70;99.90
18444;DHT22;9350;53.176;8.194;2024-01-30T05:02:10;5.70;99.90
18444;DHT22;9350;53.176;8.194;2024-01-30T05:04:37;5.80;99.90
18444;DHT22;9350;53.176;8.194;2024-01-30T05:07:04;5.80;99.90
18444;DHT22;9350;53.176;8.194;2024-01-30T05:09:31;5.80;99.90
18444;DHT22;9350;53.176;8.194;2024-01-30T05:11:58;5.80;99.90
18444;DHT22;9350;53.176;8.194;2024-01-30T05:14:26;5.80;99.90
18444;DHT22;9350;53.176;8.194;2024-01-30T05:16:53;5.90;99.90
18444;DHT22;9350;53.176;8.194;2024-01-30T05:19:20;5.80;99.90
18444;DHT22;9350;53.176;8.194;2024-01-30T05:21:48;5.80;99.90
18444;DHT22;9350;53.176;8.194;2024-01-30T05:24:15;5.90;99.90
18444;DHT22;9350;53.176;8.194;2024-01-30T05:26:42;5.80;99.90
18444;DHT22;9350;53.176;8.194;2024-01-30T05:29:09;5.80;99.90
18444;DHT22;9350;53.176;8.194;2024-01-30T05:31:37;5.80;99.90
18444;DHT22;9350;53.176;8.194;2024-01-30T05:34:04;5.80;99.90
18444;DHT22;9350;53.176;8.194;2024-01-30T05:36:32;5.80;99.90
18444;DHT22;9350;53.176;8.194;2024-01-30T05:38:58;5.80;99.90
18444;DHT22;9350;53.176;8.194;2024-01-30T05:41:25;5.80;99.90
18444;DHT22;9350;53.176;8.194;2024-01-30T05:43:52;5.80;99.90
18444;DHT22;9350;53.176;8.194;2024-01-30T05:46:19;5.80;99.90
18444;DHT22;9350;53.176;8.194;2024-01-30T05:48:47;5.70;99.90
18444;DHT22;9350;53.176;8.194;2024-01-30T05:51:14;5.80;99.90
18444;DHT22;9350;53.176;8.194;2024-01-30T05:53:41;5.70;99.90
18444;DHT22;9350;53.176;8.194;2024-01-30T05:56:07;5.80;99.90
18444;DHT22;9350;53.176;8.194;2024-01-30T05:58:34;5.70;99.90
18444;DHT22;9350;53.176;8.194;2024-01-30T06:01:03;5.80;99.90
18444;DHT22;9350;53.176;8.194;2024-01-30T06:03:29;5.80;99.90
18444;DHT22;9350;53.176;8.194;2024-01-30T06:05:57;5.70;99.90
18444;DHT22;9350;53.176;8.194;2024-01-30T06:08:24;5.70;99.90
18444;DHT22;9350;53.176;8.194;2024-01-30T06:10:51;5.80;99.90
18444;DHT22;9350;53.176;8.194;2024-01-30T06:13:18;5.80;99.90
18444;DHT22;9350;53.176;8.194;2024-01-30T06:15:44;5.80;99.90
18444;DHT22;9350;53.176;8.194;2024-01-30T06:18:11;5.80;99.90
18444;DHT22;9350;53.176;8.194;2024-01-30T06:20:38;5.70;99.90
18444;DHT22;9350;53.176;8.194;2024-01-30T06:23:07;5.70;99.90
18444;DHT22;9350;53.176;8.194;2024-01-30T06:25:33;5.80;99.90
18444;DHT22;9350;53.176;8.194;2024-01-30T06:28:00;5.80;99.90
18444;DHT22;9350;53.176;8.194;2024-01-30T06:30:27;5.80;99.90
18444;DHT22;9350;53.176;8.194;2024-01-30T06:32:54;5.70;99.90
18444;DHT22;9350;53.176;8.194;2024-01-30T06:35:20;5.70;99.90
18444;DHT22;9350;53.176;8.194;2024-01-30T06:37:47;5.80;99.90
18444;DHT22;9350;53.176;8.194;2024-01-30T06:40:16;5.80;99.90
18444;DHT22;9350;53.176;8.194;2024-01-30T06:42:42;5.80;99.90
18444;DHT22;9350;53.176;8.194;2024-01-30T06:45:09;5.70;99.90
18444;DHT22;9350;53.176;8.194;2024-01-30T06:47:36;5.80;99.90
18444;DHT22;9350;53.176;8.194;2024-01-30T06:50:03;5.80;99.90
18444;DHT22;9350;53.176;8.194;2024-01-30T06:52:30;5.80;99.90
18444;DHT22;9350;53.176;8.194;2024-01-30T06:54:57;5.80;99.90
18444;DHT22;9350;53.176;8.194;2024-01-30T06:57:25;5.80;99.90
18444;DHT22;9350;53.176;8.194;2024-01-30T06:59:53;5.80;99.90
18444;DHT22;9350;53.176;8.194;2024-01-30T07:02:20;5.80;99.90
18444;DHT22;9350;53.176;8.194;2024-01-30T07:04:47;5.80;99.90
18444;DHT22;9350;53.176;8.194;2024-01-30T07:07:14;5.80;99.90
18444;DHT22;9350;53.176;8.194;2024-01-30T07:09:41;5.80;99.90
18444;DHT22;9350;53.176;8.194;2024-01-30T07:12:08;5.90;99.90
18444;DHT22;9350;53.176;8.194;2024-01-30T07:14:36;5.90;99.90
18444;DHT22;9350;53.176;8.194;2024-01-30T07:17:03;5.90;99.90
18444;DHT22;9350;53.176;8.194;2024-01-30T07:19:30;5.90;99.90
18444;DHT22;9350;53.176;8.194;2024-01-30T07:21:57;6.00;99.90
18444;DHT22;9350;53.176;8.194;2024-01-30T07:24:24;6.00;99.90
18444;DHT22;9350;53.176;8.194;2024-01-30T07:26:51;6.00;99.90
18444;DHT22;9350;53.176;8.194;2024-01-30T07:29:17;6.00;99.90
18444;DHT22;9350;53.176;8.194;2024-01-30T07:31:46;6.00;99.90
18444;DHT22;9350;53.176;8.194;2024-01-30T07:34:12;6.00;99.90
18444;DHT22;9350;53.176;8.194;2024-01-30T07:36:39;6.00;99.90
18444;DHT22;9350;53.176;8.194;2024-01-30T07:39:06;6.00;99.90
18444;DHT22;9350;53.176;8.194;2024-01-30T07:41:33;6.10;99.90
18444;DHT22;9350;53.176;8.194;2024-01-30T07:44:00;6.10;99.90
18444;DHT22;9350;53.176;8.194;2024-01-30T07:46:26;6.10;99.90
18444;DHT22;9350;53.176;8.194;2024-01-30T07:48:54;6.00;99.90
18444;DHT22;9350;53.176;8.194;2024-01-30T07:51:22;6.10;99.90
18444;DHT22;9350;53.176;8.194;2024-01-30T07:53:49;6.20;99.90
18444;DHT22;9350;53.176;8.194;2024-01-30T07:56:16;6.10;99.90
18444;DHT22;9350;53.176;8.194;2024-01-30T07:58:43;6.20;99.90
18444;DHT22;9350;53.176;8.194;2024-01-30T08:01:10;6.20;99.90
18444;DHT22;9350;53.176;8.194;2024-01-30T08:03:36;6.10;99.90
18444;DHT22;9350;53.176;8.194;2024-01-30T08:06:06;6.20;99.90
18444;DHT22;9350;53.176;8.194;2024-01-30T08:08:33;6.20;99.90
18444;DHT22;9350;53.176;8.194;2024-01-30T08:11:00;6.20;99.90
18444;DHT22;9350;53.176;8.194;2024-01-30T08:13:27;6.20;99.90
18444;DHT22;9350;53.176;8.194;2024-01-30T08:15:54;6.20;99.90
18444;DHT22;9350;53.176;8.194;2024-01-30T08:18:21;6.30;99.90
18444;DHT22;9350;53.176;8.194;2024-01-30T08:20:48;6.30;99.90
18444;DHT22;9350;53.176;8.194;2024-01-30T08:23:16;6.30;99.90
18444;DHT22;9350;53.176;8.194;2024-01-30T08:25:42;6.30;99.90
18444;DHT22;9350;53.176;8.194;2024-01-30T08:28:09;6.30;99.90
18444;DHT22;9350;53.176;8.194;2024-01-30T08:30:36;6.40;99.90
18444;DHT22;9350;53.176;8.194;2024-01-30T08:33:04;6.40;99.90
18444;DHT22;9350;53.176;8.194;2024-01-30T08:35:31;6.50;99.90
18444;DHT22;9350;53.176;8.194;2024-01-30T08:37:59;6.50;99.90
18444;DHT22;9350;53.176;8.194;2024-01-30T08:40:27;6.40;99.90
18444;DHT22;9350;53.176;8.194;2024-01-30T08:42:54;6.50;99.90
18444;DHT22;9350;53.176;8.194;2024-01-30T08:45:21;6.50;99.90
18444;DHT22;9350;53.176;8.194;2024-01-30T08:47:47;6.60;99.90
18444;DHT22;9350;53.176;8.194;2024-01-30T08:50:14;6.60;99.90
18444;DHT22;9350;53.176;8.194;2024-01-30T08:52:41;6.60;99.90
18444;DHT22;9350;53.176;8.194;2024-01-30T08:55:08;6.60;99.90
18444;DHT22;9350;53.176;8.194;2024-01-30T08:57:36;6.60;99.90
18444;DHT22;9350;53.176;8.194;2024-01-30T09:00:04;6.60;99.90
18444;DHT22;9350;53.176;8.194;2024-01-30T09:02:34;6.70;99.90
18444;DHT22;9350;53.176;8.194;2024-01-30T09:05:01;6.70;99.90
18444;DHT22;9350;53.176;8.194;2024-01-30T09:07:28;6.70;99.90
18444;DHT22;9350;53.176;8.194;2024-01-30T09:09:55;6.80;99.90
18444;DHT22;9350;53.176;8.194;2024-01-30T09:12:21;6.90;99.90
18444;DHT22;9350;53.176;8.194;2024-01-30T09:14:50;6.80;99.90
18444;DHT22;9350;53.176;8.194;2024-01-30T09:17:16;6.80;99.90
18444;DHT22;9350;53.176;8.194;2024-01-30T09:19:43;6.80;99.90
18444;DHT22;9350;53.176;8.194;2024-01-30T09:22:10;6.90;99.90
18444;DHT22;9350;53.176;8.194;2024-01-30T09:24:37;7.00;99.90
18444;DHT22;9350;53.176;8.194;2024-01-30T09:27:04;6.90;99.90
18444;DHT22;9350;53.176;8.194;2024-01-30T09:29:31;7.00;99.90
18444;DHT22;9350;53.176;8.194;2024-01-30T09:32:01;7.10;99.90
18444;DHT22;9350;53.176;8.194;2024-01-30T09:34:27;7.10;99.90
18444;DHT22;9350;53.176;8.194;2024-01-30T09:36:54;7.10;99.90
18444;DHT22;9350;53.176;8.194;2024-01-30T09:39:21;7.10;99.90
18444;DHT22;9350;53.176;8.194;2024-01-30T09:41:49;7.20;99.90
18444;DHT22;9350;53.176;8.194;2024-01-30T09:44:20;7.20;99.90
18444;DHT22;9350;53.176;8.194;2024-01-30T09:46:47;7.30;99.90
18444;DHT22;9350;53.176;8.194;2024-01-30T09:49:16;7.30;99.90
18444;DHT22;9350;53.176;8.194;2024-01-30T09:51:44;7.30;99.90
18444;DHT22;9350;53.176;8.194;2024-01-30T09:54:14;7.30;99.90
18444;DHT22;9350;53.176;8.194;2024-01-30T09:56:42;7.40;99.90
18444;DHT22;9350;53.176;8.194;2024-01-30T09:59:09;7.30;99.90
18444;DHT22;9350;53.176;8.194;2024-01-30T10:01:36;7.40;99.90
18444;DHT22;9350;53.176;8.194;2024-01-30T10:04:04;7.40;99.90
18444;DHT22;9350;53.176;8.194;2024-01-30T10:06:32;7.40;99.90
18444;DHT22;9350;53.176;8.194;2024-01-30T10:08:59;7.40;99.90
18444;DHT22;9350;53.176;8.194;2024-01-30T10:11:26;7.50;99.90
18444;DHT22;9350;53.176;8.194;2024-01-30T10:13:53;7.50;99.90
18444;DHT22;9350;53.176;8.194;2024-01-30T10:16:20;7.50;99.90
18444;DHT22;9350;53.176;8.194;2024-01-30T10:18:47;7.50;99.90
18444;DHT22;9350;53.176;8.194;2024-01-30T10:21:14;7.60;99.90
18444;DHT22;9350;53.176;8.194;2024-01-30T10:23:43;7.60;99.90
18444;DHT22;9350;53.176;8.194;2024-01-30T10:26:10;7.60;99.90
18444;DHT22;9350;53.176;8.194;2024-01-30T10:28:37;7.70;99.90
18444;DHT22;9350;53.176;8.194;2024-01-30T10:31:04;7.70;99.90
18444;DHT22;9350;53.176;8.194;2024-01-30T10:33:31;7.80;99.90
18444;DHT22;9350;53.176;8.194;2024-01-30T10:36:00;7.90;99.90
18444;DHT22;9350;53.176;8.194;2024-01-30T10:38:28;7.80;99.90
18444;DHT22;9350;53.176;8.194;2024-01-30T10:40:59;7.80;99.90
18444;DHT22;9350;53.176;8.194;2024-01-30T10:43:30;7.90;99.90
18444;DHT22;9350;53.176;8.194;2024-01-30T10:46:04;7.90;99.90
18444;DHT22;9350;53.176;8.194;2024-01-30T10:48:36;7.90;99.90
18444;DHT22;9350;53.176;8.194;2024-01-30T10:51:09;7.90;99.90
18444;DHT22;9350;53.176;8.194;2024-01-30T10:53:38;8.00;99.90
18444;DHT22;9350;53.176;8.194;2024-01-30T11:33:09;8.40;99.90
18444;DHT22;9350;53.176;8.194;2024-01-30T11:35:37;8.50;99.90
18444;DHT22;9350;53.176;8.194;2024-01-30T11:38:06;8.50;99.90
18444;DHT22;9350;53.176;8.194;2024-01-30T11:40:34;8.60;99.90
18444;DHT22;9350;53.176;8.194;2024-01-30T11:43:03;8.60;99.90
18444;DHT22;9350;53.176;8.194;2024-01-30T11:45:30;8.60;99.90
18444;DHT22;9350;53.176;8.194;2024-01-30T11:47:58;8.60;99.90
18444;DHT22;9350;53.176;8.194;2024-01-30T11:50:28;8.60;99.90
18444;DHT22;9350;53.176;8.194;2024-01-30T11:52:55;8.70;99.90
18444;DHT22;9350;53.176;8.194;2024-01-30T11:55:23;8.50;99.90
18444;DHT22;9350;53.176;8.194;2024-01-30T11:57:50;8.70;99.90
18444;DHT22;9350;53.176;8.194;2024-01-30T12:00:18;8.70;99.90
18444;DHT22;9350;53.176;8.194;2024-01-30T12:02:49;8.70;99.90
18444;DHT22;9350;53.176;8.194;2024-01-30T12:05:18;8.70;99.90
18444;DHT22;9350;53.176;8.194;2024-01-30T12:07:46;8.70;99.90
18444;DHT22;9350;53.176;8.194;2024-01-30T12:10:14;8.80;99.90
18444;DHT22;9350;53.176;8.194;2024-01-30T12:12:42;8.80;99.90
18444;DHT22;9350;53.176;8.194;2024-01-30T12:15:10;8.80;99.90
18444;DHT22;9350;53.176;8.194;2024-01-30T12:17:37;8.80;99.90
18444;DHT22;9350;53.176;8.194;2024-01-30T12:20:05;8.80;99.90
18444;DHT22;9350;53.176;8.194;2024-01-30T12:22:33;8.80;99.90
18444;DHT22;9350;53.176;8.194;2024-01-30T12:25:04;8.90;99.90
18444;DHT22;9350;53.176;8.194;2024-01-30T12:27:31;8.80;99.90
18444;DHT22;9350;53.176;8.194;2024-01-30T12:29:58;8.80;99.90
18444;DHT22;9350;53.176;8.194;2024-01-30T12:32:25;8.90;99.90
18444;DHT22;9350;53.176;8.194;2024-01-30T12:34:55;8.90;99.90
18444;DHT22;9350;53.176;8.194;2024-01-30T12:37:22;8.90;99.90
18444;DHT22;9350;53.176;8.194;2024-01-30T12:39:51;8.80;99.90
18444;DHT22;9350;53.176;8.194;2024-01-30T12:42:20;8.90;99.90
18444;DHT22;9350;53.176;8.194;2024-01-30T12:44:48;8.90;99.90
18444;DHT22;9350;53.176;8.194;2024-01-30T12:47:15;8.90;99.90
18444;DHT22;9350;53.176;8.194;2024-01-30T12:49:42;8.90;99.90
18444;DHT22;9350;53.176;8.194;2024-01-30T12:52:09;8.90;99.90
18444;DHT22;9350;53.176;8.194;2024-01-30T12:54:37;8.90;99.90
18444;DHT22;9350;53.176;8.194;2024-01-30T12:57:04;8.90;99.90
18444;DHT22;9350;53.176;8.194;2024-01-30T12:59:32;8.90;99.90
18444;DHT22;9350;53.176;8.194;2024-01-30T13:02:00;8.90;99.90
18444;DHT22;9350;53.176;8.194;2024-01-30T13:04:28;8.90;99.90
18444;DHT22;9350;53.176;8.194;2024-01-30T13:06:55;8.90;99.90
18444;DHT22;9350;53.176;8.194;2024-01-30T13:09:24;8.90;99.90
18444;DHT22;9350;53.176;8.194;2024-01-30T13:11:50;8.90;99.90
18444;DHT22;9350;53.176;8.194;2024-01-30T13:14:18;8.90;99.90
18444;DHT22;9350;53.176;8.194;2024-01-30T13:16:46;8.90;99.90
18444;DHT22;9350;53.176;8.194;2024-01-30T13:19:13;8.90;99.90
18444;DHT22;9350;53.176;8.194;2024-01-30T13:21:39;8.80;99.90
18444;DHT22;9350;53.176;8.194;2024-01-30T13:24:06;8.90;99.90
18444;DHT22;9350;53.176;8.194;2024-01-30T13:26:33;8.90;99.90
18444;DHT22;9350;53.176;8.194;2024-01-30T13:29:00;8.90;99.90
18444;DHT22;9350;53.176;8.194;2024-01-30T13:31:27;8.90;99.90
18444;DHT22;9350;53.176;8.194;2024-01-30T13:33:55;8.90;99.90
18444;DHT22;9350;53.176;8.194;2024-01-30T13:36:22;8.90;99.90
18444;DHT22;9350;53.176;8.194;2024-01-30T13:38:49;8.90;99.90
18444;DHT22;9350;53.176;8.194;2024-01-30T13:41:16;8.90;99.90
18444;DHT22;9350;53.176;8.194;2024-01-30T13:43:43;9.00;99.90
18444;DHT22;9350;53.176;8.194;2024-01-30T13:46:10;9.10;99.90
18444;DHT22;9350;53.176;8.194;2024-01-30T13:48:37;9.10;99.90
18444;DHT22;9350;53.176;8.194;2024-01-30T13:51:05;9.00;99.90
18444;DHT22;9350;53.176;8.194;2024-01-30T13:53:32;9.00;99.90
18444;DHT22;9350;53.176;8.194;2024-01-30T13:55:59;9.00;99.90
18444;DHT22;9350;53.176;8.194;2024-01-30T13:58:26;9.10;99.90
18444;DHT22;9350;53.176;8.194;2024-01-30T14:00:52;9.00;99.90
18444;DHT22;9350;53.176;8.194;2024-01-30T14:03:20;9.10;99.90
18444;DHT22;9350;53.176;8.194;2024-01-30T14:05:47;9.10;99.90
18444;DHT22;9350;53.176;8.194;2024-01-30T14:08:15;9.20;99.90
18444;DHT22;9350;53.176;8.194;2024-01-30T14:10:42;9.20;99.90
18444;DHT22;9350;53.176;8.194;2024-01-30T14:13:09;9.20;99.90
18444;DHT22;9350;53.176;8.194;2024-01-30T14:15:37;9.10;99.90
18444;DHT22;9350;53.176;8.194;2024-01-30T14:18:04;9.20;99.90
18444;DHT22;9350;53.176;8.194;2024-01-30T14:20:33;9.20;99.90
18444;DHT22;9350;53.176;8.194;2024-01-30T14:23:00;9.20;99.90
18444;DHT22;9350;53.176;8.194;2024-01-30T14:25:28;9.20;99.90
18444;DHT22;9350;53.176;8.194;2024-01-30T14:27:55;9.30;99.90
18444;DHT22;9350;53.176;8.194;2024-01-30T14:30:22;9.30;99.90
18444;DHT22;9350;53.176;8.194;2024-01-30T14:32:49;9.30;99.90
18444;DHT22;9350;53.176;8.194;2024-01-30T14:35:16;9.30;99.90
18444;DHT22;9350;53.176;8.194;2024-01-30T14:37:45;9.30;99.90
18444;DHT22;9350;53.176;8.194;2024-01-30T14:40:11;9.20;99.90
18444;DHT22;9350;53.176;8.194;2024-01-30T14:42:40;9.30;99.90
18444;DHT22;9350;53.176;8.194;2024-01-30T14:45:07;9.30;99.90
18444;DHT22;9350;53.176;8.194;2024-01-30T14:47:35;9.30;99.90
18444;DHT22;9350;53.176;8.194;2024-01-30T14:50:02;9.40;99.90
18444;DHT22;9350;53.176;8.194;2024-01-30T14:52:29;9.30;99.90
18444;DHT22;9350;53.176;8.194;2024-01-30T14:54:57;9.40;99.90
18444;DHT22;9350;53.176;8.194;2024-01-30T14:57:24;9.30;99.90
18444;DHT22;9350;53.176;8.194;2024-01-30T14:59:52;9.30;99.90
18444;DHT22;9350;53.176;8.194;2024-01-30T15:02:19;9.30;99.90
18444;DHT22;9350;53.176;8.194;2024-01-30T15:04:45;9.30;99.90
18444;DHT22;9350;53.176;8.194;2024-01-30T15:07:12;9.20;99.90
18444;DHT22;9350;53.176;8.194;2024-01-30T15:09:39;9.20;99.90
18444;DHT22;9350;53.176;8.194;2024-01-30T15:12:06;9.20;99.90
18444;DHT22;9350;53.176;8.194;2024-01-30T15:14:33;9.20;99.90
18444;DHT22;9350;53.176;8.194;2024-01-30T15:17:01;9.40;99.90
18444;DHT22;9350;53.176;8.194;2024-01-30T15:19:28;9.50;99.90
18444;DHT22;9350;53.176;8.194;2024-01-30T15:21:55;9.50;99.90
18444;DHT22;9350;53.176;8.194;2024-01-30T15:24:22;9.40;99.90
18444;DHT22;9350;53.176;8.194;2024-01-30T15:26:50;9.40;99.90
18444;DHT22;9350;53.176;8.194;2024-01-30T15:29:16;9.30;99.90
18444;DHT22;9350;53.176;8.194;2024-01-30T15:31:43;9.30;99.90
18444;DHT22;9350;53.176;8.194;2024-01-30T15:34:11;9.30;99.90
18444;DHT22;9350;53.176;8.194;2024-01-30T15:36:38;9.20;99.90
18444;DHT22;9350;53.176;8.194;2024-01-30T15:39:05;9.20;99.90
18444;DHT22;9350;53.176;8.194;2024-01-30T15:41:32;9.20;99.90
18444;DHT22;9350;53.176;8.194;2024-01-30T15:43:59;9.20;99.90
18444;DHT22;9350;53.176;8.194;2024-01-30T15:46:27;9.20;99.90
18444;DHT22;9350;53.176;8.194;2024-01-30T15:48:54;9.20;99.90
18444;DHT22;9350;53.176;8.194;2024-01-30T15:51:22;9.20;99.90
18444;DHT22;9350;53.176;8.194;2024-01-30T15:53:50;9.20;99.90
18444;DHT22;9350;53.176;8.194;2024-01-30T15:56:17;9.10;99.90
18444;DHT22;9350;53.176;8.194;2024-01-30T15:58:43;9.10;99.90
18444;DHT22;9350;53.176;8.194;2024-01-30T16:01:14;9.10;99.90
18444;DHT22;9350;53.176;8.194;2024-01-30T16:03:41;9.10;99.90
18444;DHT22;9350;53.176;8.194;2024-01-30T16:06:10;9.10;99.90
18444;DHT22;9350;53.176;8.194;2024-01-30T16:08:38;9.10;99.90
18444;DHT22;9350;53.176;8.194;2024-01-30T16:11:06;9.10;99.90
18444;DHT22;9350;53.176;8.194;2024-01-30T16:13:34;9.10;99.90
18444;DHT22;9350;53.176;8.194;2024-01-30T16:16:03;9.10;99.90
18444;DHT22;9350;53.176;8.194;2024-01-30T16:18:30;9.00;99.90
18444;DHT22;9350;53.176;8.194;2024-01-30T16:20:57;9.00;99.90
18444;DHT22;9350;53.176;8.194;2024-01-30T16:23:24;9.00;99.90
18444;DHT22;9350;53.176;8.194;2024-01-30T16:25:54;9.00;99.90
18444;DHT22;9350;53.176;8.194;2024-01-30T16:28:24;8.90;99.90
18444;DHT22;9350;53.176;8.194;2024-01-30T16:30:52;8.90;99.90
18444;DHT22;9350;53.176;8.194;2024-01-30T16:33:19;8.90;99.90
18444;DHT22;9350;53.176;8.194;2024-01-30T16:35:44;8.80;99.90
18444;DHT22;9350;53.176;8.194;2024-01-30T16:38:12;8.90;99.90